Airfield :
LOGIN :

Register | Disclaimer

   EN    FR    IT 

 










Legend :    VFR   Marginal VFR   IFR   Intensive IFR   Very Intensive IFR
Visi :
Ceiling :
>= 8 km
>= 3000ft
5 to 8 km
1000 to 3000 ft
1500m to 5 km
500 to 1000 ft
800 to 1500m
200 to 500 ft
< 800m
< 200 ft
Symbols :   Thunderstorms  Fog  Heavy snow  Heavy precipitations  Wind > 20 kt
SIGMETs :     Misc.  Thunderstorms  Icing  Turbulence  Mountain Waves  Volcanic Ashes







- Airport Elevation : 502 ft
- IATA code : ORK


EICK - Cork

CURRENT METAR :
  • 210900Z 19013KT 9999 BKN006 BKN014 17/16 Q1015 TEMPO 5000

EXPIRED METARs :
  • 210830Z 20016KT 9999 BKN007 BKN016 17/16 Q1015 TEMPO 5000
  • 210800Z 19013KT 9999 SCT005 BKN008 17/16 Q1015 TEMPO 5000
  • 210730Z 19014KT 9999 BKN005 BKN009 16/16 Q1015 TEMPO 5000
  • 210700Z 19011KT 9999 SCT005 BKN008 16/16 Q1015 TEMPO 5000
  • 210630Z 20010KT 9000 -RA SCT004 BKN008 16/15 Q1015 TEMPO 5000

TAF COR TAF EICK
Valid from the 21 at 06:00 until the 22 at 06:00 UTC


210504Z 2106/2206 19010KT 9999 -RA SCT007 BKN015
PROB40
TEMPO 2106/2108 5000 BKN007
BECMG 2108/2110 20015G25KT
TEMPO 2108/2110 5000 -RADZ BKN007
BECMG 2110/2112 20018G30KT 5000 -RA SCT004 BKN007
BECMG 2112/2115 3000 -DZ BR SCT002 BKN004
PROB30
TEMPO 2112/2115 RADZ
TEMPO 2115/2206 0400 FG BKN002
BECMG 2118/2121 23017G28KT
BECMG 2201/2204 23013KT
No reported NOTAMs for that airfield.
1 SIGMET reported for the Shannon FIR (EISN) :
 
Embedded thunderstorms
EISN SIGMET 03 VALID 210700/211000 EINN
EISN SHANNON FIR/UIR EMBD TS OBS WI N5400 W01500 - N5430 W01035 - N5320 W01500 - N5400 W01500 TOP FL250 MOV ENE 25KT NC=



MET'MAP, your aeronautical weather chart ! - Copyright ORBIFLY December 2007 - Disclaimer

ORBIFLY MET'MAP TEAM :

Programming & Development : Alexandra Zaïnal
Concept & Development : Baudouin d'Aumeries
Co-Development & Prog : Marc-Olivier Méhu
Technical & hardware support : Manuel Goepfert

Contact : metmap@orbifly.com




SOURCES & CREDITS :

   NOAA